Time;durP1;ratioP1;P1;durP2;ratioP2;P2;SDS_P1;SDS_P2;PMS_P1;PMS_P2;Temp;Humidity;BMP_temperature;BMP_pressure;BME280_temperature;BME280_humidity;BME280_pressure;Samples;Min_cycle;Max_cycle;Signal;HPM_P1;HPM_P2
2024/01/28 00:00:35;;;;;;;;;5.25;3.00;;;;;1.79;92.97;102007.33;112373;242;161380;-58
2024/01/28 00:03:41;;;;;;;;;7.00;5.00;;;;;1.81;93.07;102005.27;112470;244;39441;-59
2024/01/28 00:06:24;;;;;;;;;7.75;6.00;;;;;1.82;93.03;102013.92;112411;242;160765;-56
2024/01/28 00:09:03;;;;;;;;;7.00;4.00;;;;;1.85;93.05;102016.77;112496;244;39898;-57
2024/01/28 00:11:48;;;;;;;;;4.00;3.00;;;;;1.83;93.07;102019.58;112364;242;160609;-56
2024/01/28 00:14:29;;;;;;;;;6.00;4.00;;;;;1.86;93.06;102020.27;112546;244;40273;-57
2024/01/28 00:17:08;;;;;;;;;4.00;3.00;;;;;1.81;93.08;102017.20;112424;244;41286;-57
2024/01/28 00:19:48;;;;;;;;;7.00;5.00;;;;;1.70;93.01;102023.16;112385;244;162135;-57
2024/01/28 00:22:31;;;;;;;;;5.00;4.50;;;;;1.58;92.99;102027.82;112451;244;39662;-57
2024/01/28 00:25:09;;;;;;;;;6.00;4.00;;;;;1.46;92.87;102026.45;112357;242;161139;-59
2024/01/28 00:27:47;;;;;;;;;6.67;4.67;;;;;1.35;92.91;102029.04;112405;244;40622;-58
2024/01/28 00:30:34;;;;;;;;;7.00;4.00;;;;;1.18;92.76;102036.98;112304;242;160934;-56
2024/01/28 00:33:11;;;;;;;;;6.00;4.50;;;;;1.04;92.74;102045.42;112402;244;39242;-56
2024/01/28 00:35:48;;;;;;;;;7.25;4.75;;;;;0.95;92.74;102046.84;112320;242;161406;-55
2024/01/28 00:38:33;;;;;;;;;4.00;4.00;;;;;0.86;92.71;102051.23;112454;244;39569;-55
2024/01/28 00:41:22;;;;;;;;;12.00;9.00;;;;;0.79;92.58;102053.80;112410;244;39973;-55
2024/01/28 00:44:01;;;;;;;;;7.25;5.75;;;;;0.71;92.57;102058.52;112449;244;38998;-56
2024/01/28 00:46:36;;;;;;;;;16.00;11.00;;;;;0.66;92.62;102066.95;112422;244;40417;-58
2024/01/28 00:49:18;;;;;;;;;13.67;9.67;;;;;0.60;92.65;102066.17;112324;243;160771;-57
2024/01/28 00:51:55;;;;;;;;;7.00;6.50;;;;;0.53;92.77;102070.65;112443;245;40387;-57
2024/01/28 00:54:37;;;;;;;;;3.67;3.00;;;;;0.47;92.95;102073.11;112333;243;161731;-56
2024/01/28 00:57:18;;;;;;;;;8.00;6.00;;;;;0.40;93.07;102075.11;112454;245;39905;-55
2024/01/28 01:00:04;;;;;;;;;10.00;7.00;;;;;0.31;93.13;102078.98;112330;243;162419;-56
2024/01/28 01:02:43;;;;;;;;;9.00;6.00;;;;;0.25;93.17;102081.61;112370;245;40168;-56
2024/01/28 01:05:18;;;;;;;;;10.00;7.00;;;;;0.23;93.15;102079.56;112489;245;39212;-55
2024/01/28 01:07:52;;;;;;;;;9.33;6.67;;;;;0.22;93.24;102079.80;112272;243;161001;-56
2024/01/28 01:10:38;;;;;;;;;8.00;6.00;;;;;0.28;93.50;102079.67;112430;245;39335;-55
2024/01/28 01:13:16;;;;;;;;;9.00;7.50;;;;;0.27;93.54;102079.51;112254;243;161246;-55
2024/01/28 01:16:01;;;;;;;;;7.00;6.00;;;;;0.31;93.68;102083.43;112374;245;39535;-56
2024/01/28 01:18:39;;;;;;;;;8.50;6.25;;;;;0.29;93.64;102086.00;112317;243;161159;-56
2024/01/28 01:21:15;;;;;;;;;8.00;8.00;;;;;0.24;93.73;102083.05;112465;244;39703;-56
2024/01/28 01:23:55;;;;;;;;;4.00;3.25;;;;;0.17;93.67;102085.06;112309;243;161444;-57
2024/01/28 01:26:32;;;;;;;;;7.00;6.00;;;;;0.08;93.75;102089.09;112442;245;39693;-55
2024/01/28 01:29:14;;;;;;;;;7.75;5.25;;;;;0.00;93.67;102079.55;112422;245;39679;-56
2024/01/28 01:31:51;;;;;;;;;5.00;4.00;;;;;-0.06;93.65;102079.56;112339;242;160828;-55
2024/01/28 01:34:32;;;;;;;;;10.00;4.00;;;;;-0.17;93.66;102077.29;112497;244;40016;-58
2024/01/28 01:37:15;;;;;;;;;8.00;6.00;;;;;-0.27;93.65;102076.05;112206;242;161502;-58
2024/01/28 01:39:57;;;;;;;;;5.00;3.33;;;;;-0.35;93.74;102076.11;112465;243;39221;-57
2024/01/28 01:42:35;;;;;;;;;5.00;5.00;;;;;-0.42;93.70;102074.73;112441;244;40891;-57
2024/01/28 01:45:13;;;;;;;;;5.00;3.25;;;;;-0.53;93.77;102079.89;112438;244;39359;-57
2024/01/28 01:47:51;;;;;;;;;8.67;6.00;;;;;-0.58;93.83;102082.61;112301;242;161581;-57
2024/01/28 01:50:33;;;;;;;;;5.75;4.50;;;;;-0.66;94.06;102087.93;112418;244;39735;-59
2024/01/28 01:53:18;;;;;;;;;6.00;5.00;;;;;-0.67;94.18;102092.78;112404;244;40970;-59
2024/01/28 01:55:57;;;;;;;;;9.67;7.00;;;;;-0.61;94.35;102094.80;112268;242;161256;-56
2024/01/28 01:58:35;;;;;;;;;6.50;4.75;;;;;-0.57;94.74;102096.73;112405;244;39645;-57
2024/01/28 02:01:16;;;;;;;;;8.00;5.00;;;;;-0.51;94.77;102094.14;112289;242;161301;-57
2024/01/28 02:04:00;;;;;;;;;8.00;6.33;;;;;-0.45;94.85;102096.46;112429;244;40340;-57
2024/01/28 02:06:41;;;;;;;;;9.00;6.00;;;;;-0.40;94.97;102097.44;112267;242;161511;-59
2024/01/28 02:09:18;;;;;;;;;6.75;5.00;;;;;-0.31;95.12;102091.67;112440;244;39544;-56
2024/01/28 02:11:59;;;;;;;;;7.00;6.00;;;;;-0.21;95.23;102091.83;112336;242;161258;-56
2024/01/28 02:14:39;;;;;;;;;8.00;5.00;;;;;-0.10;95.38;102092.84;112463;244;39789;-57
2024/01/28 02:17:24;;;;;;;;;5.75;4.00;;;;;-0.01;95.53;102093.63;112475;244;39834;-57
2024/01/28 02:20:08;;;;;;;;;10.00;7.50;;;;;0.06;95.55;102097.54;112446;244;40424;-56
2024/01/28 02:22:44;;;;;;;;;9.00;7.00;;;;;0.12;95.79;102097.57;112465;244;39032;-56
2024/01/28 02:25:27;;;;;;;;;10.00;7.00;;;;;0.18;95.88;102096.69;112380;242;162908;-57
2024/01/28 02:28:03;;;;;;;;;8.00;6.00;;;;;0.23;96.06;102090.92;112467;244;39049;-56
2024/01/28 02:30:45;;;;;;;;;6.25;4.75;;;;;0.32;96.12;102094.35;112326;244;161747;-58
2024/01/28 02:33:23;;;;;;;;;7.00;5.00;;;;;0.36;96.17;102091.98;112420;246;39883;-57
2024/01/28 02:35:57;;;;;;;;;4.50;4.00;;;;;0.41;96.25;102087.10;112329;243;161305;-56
2024/01/28 02:38:40;;;;;;;;;8.00;6.00;;;;;0.45;96.32;102087.96;112395;245;40021;-56
2024/01/28 02:41:21;;;;;;;;;5.25;4.25;;;;;0.47;96.32;102094.17;112404;244;39662;-59
2024/01/28 02:43:58;;;;;;;;;5.50;3.50;;;;;0.52;96.42;102101.90;112262;242;161061;-59
2024/01/28 02:46:39;;;;;;;;;4.00;3.00;;;;;0.58;96.56;102112.41;112389;243;39937;-59
2024/01/28 02:49:24;;;;;;;;;9.33;6.00;;;;;0.68;96.55;102119.14;112274;243;161210;-57
2024/01/28 02:52:00;;;;;;;;;5.00;4.00;;;;;0.77;96.48;102126.57;112406;244;39962;-57
2024/01/28 02:54:36;;;;;;;;;7.00;5.00;;;;;0.83;96.50;102130.86;112327;242;161077;-57
2024/01/28 02:57:10;;;;;;;;;5.00;4.00;;;;;0.86;96.67;102131.98;112409;243;40068;-56
2024/01/28 02:59:47;;;;;;;;;8.50;4.00;;;;;0.91;96.64;102138.93;112353;242;161439;-59
2024/01/28 03:02:27;;;;;;;;;7.00;4.00;;;;;0.98;96.60;102141.92;112470;243;39704;-59
2024/01/28 03:05:02;;;;;;;;;5.00;4.00;;;;;1.03;96.60;102143.23;112503;243;39673;-57
2024/01/28 03:07:36;;;;;;;;;5.00;4.00;;;;;1.03;96.65;102148.52;112352;242;161292;-58
2024/01/28 03:10:11;;;;;;;;;4.67;3.33;;;;;1.07;96.71;102151.66;112521;243;39514;-55
2024/01/28 03:12:54;;;;;;;;;7.00;5.00;;;;;1.09;96.84;102156.70;112326;242;162300;-55
2024/01/28 03:15:37;;;;;;;;;6.00;4.00;;;;;1.13;96.86;102159.88;112466;243;39007;-59
2024/01/28 03:18:22;;;;;;;;;6.50;4.00;;;;;1.16;96.81;102167.48;112278;242;161232;-59
2024/01/28 03:21:01;;;;;;;;;6.00;4.00;;;;;1.18;96.81;102171.61;112393;243;40717;-59
2024/01/28 03:23:43;;;;;;;;;9.00;6.00;;;;;1.21;96.89;102166.14;112285;243;161825;-58
2024/01/28 03:26:30;;;;;;;;;6.75;4.00;;;;;1.30;96.81;102165.10;112412;243;39846;-57
2024/01/28 03:29:17;;;;;;;;;7.00;4.00;;;;;1.32;96.93;102159.69;112474;243;40731;-57
2024/01/28 03:31:55;;;;;;;;;8.75;6.00;;;;;1.34;96.94;102161.15;112243;242;161813;-58
2024/01/28 03:34:37;;;;;;;;;5.00;3.50;;;;;1.35;96.88;102159.85;112444;243;39404;-57
2024/01/28 03:37:16;;;;;;;;;7.00;6.25;;;;;1.38;96.87;102163.95;112241;243;161036;-58
2024/01/28 03:39:56;;;;;;;;;6.00;4.00;;;;;1.39;96.95;102166.34;112464;243;40098;-55
2024/01/28 03:42:42;;;;;;;;;4.00;3.00;;;;;1.43;96.96;102166.30;112298;242;161243;-55
2024/01/28 03:45:18;;;;;;;;;4.00;3.00;;;;;1.48;96.85;102169.89;112558;244;39735;-54
2024/01/28 03:47:56;;;;;;;;;6.00;4.00;;;;;1.50;96.97;102179.94;112388;242;160714;-54
2024/01/28 03:50:35;;;;;;;;;7.75;5.25;;;;;1.53;96.98;102171.43;112544;244;40405;-57
2024/01/28 03:53:15;;;;;;;;;6.00;4.00;;;;;1.56;96.96;102169.96;112410;244;39843;-57
2024/01/28 03:55:59;;;;;;;;;3.50;3.00;;;;;1.54;97.07;102168.50;112440;242;160859;-55
2024/01/28 03:58:40;;;;;;;;;6.50;5.00;;;;;1.54;97.07;102169.90;112443;244;39527;-55
2024/01/28 04:01:30;;;;;;;;;6.00;4.00;;;;;1.54;97.24;102165.34;112304;242;162074;-56
2024/01/28 04:04:16;;;;;;;;;4.00;3.00;;;;;1.59;97.14;102170.70;112421;244;40175;-56
2024/01/28 04:07:04;;;;;;;;;6.00;4.00;;;;;1.65;97.20;102173.52;112316;242;161108;-56
2024/01/28 04:09:49;;;;;;;;;5.00;4.00;;;;;1.71;97.28;102173.88;112432;244;39354;-56
2024/01/28 04:12:29;;;;;;;;;5.00;4.00;;;;;1.74;97.27;102174.96;112305;244;160977;-56
2024/01/28 04:15:29;;;;;;;;;5.25;4.00;;;;;1.74;97.35;102176.20;112445;244;39235;-56
2024/01/28 04:18:09;;;;;;;;;4.33;3.33;;;;;1.84;97.44;102177.39;112246;242;161293;-56
2024/01/28 04:20:51;;;;;;;;;6.00;5.00;;;;;1.87;97.39;102187.52;112472;244;39931;-56
2024/01/28 04:23:32;;;;;;;;;7.00;4.00;;;;;1.85;97.35;102197.02;112419;244;40237;-56
2024/01/28 04:26:16;;;;;;;;;6.00;4.00;;;;;1.90;97.45;102199.27;112444;246;42516;-58
2024/01/28 04:28:57;;;;;;;;;8.33;5.00;;;;;1.98;97.37;102203.23;112424;245;39322;-57
2024/01/28 04:31:43;;;;;;;;;11.50;5.00;;;;;2.00;97.37;102213.38;112319;243;160963;-56
2024/01/28 04:34:25;;;;;;;;;5.00;4.00;;;;;1.99;97.45;102218.41;112520;245;39954;-56
2024/01/28 04:37:04;;;;;;;;;4.00;4.00;;;;;1.99;97.55;102221.45;112403;242;162322;-57
2024/01/28 04:39:47;;;;;;;;;3.50;3.00;;;;;2.00;97.58;102218.52;112522;244;41356;-56
2024/01/28 04:42:23;;;;;;;;;5.75;4.00;;;;;2.03;97.65;102226.75;112462;243;40738;-56
2024/01/28 04:45:02;;;;;;;;;5.00;3.00;;;;;2.05;97.63;102225.89;112514;243;40138;-55
2024/01/28 04:47:42;;;;;;;;;3.50;3.00;;;;;2.09;97.60;102230.27;112472;243;40136;-54
2024/01/28 04:50:19;;;;;;;;;3.25;3.00;;;;;2.14;97.54;102232.79;112274;243;160963;-57
2024/01/28 04:52:55;;;;;;;;;3.75;3.00;;;;;2.16;97.69;102234.83;112410;244;39522;-57
2024/01/28 04:55:34;;;;;;;;;6.00;4.00;;;;;2.19;97.59;102240.30;112279;242;160608;-57
2024/01/28 04:58:11;;;;;;;;;5.00;3.00;;;;;2.22;97.59;102245.64;112397;244;39172;-57
2024/01/28 05:00:51;;;;;;;;;5.00;4.00;;;;;2.22;97.68;102253.98;112295;242;160522;-57
2024/01/28 05:03:31;;;;;;;;;4.33;3.33;;;;;2.20;97.87;102256.59;112388;244;39666;-57
2024/01/28 05:06:09;;;;;;;;;5.00;4.00;;;;;2.20;97.85;102260.18;112101;243;452609;-55
2024/01/28 05:08:48;;;;;;;;;5.33;3.00;;;;;2.20;97.93;102258.73;112446;244;39129;-55
2024/01/28 05:11:32;;;;;;;;;5.00;4.00;;;;;2.21;98.00;102264.38;112484;244;39468;-55
2024/01/28 05:14:12;;;;;;;;;4.00;2.75;;;;;2.23;98.14;102269.62;112300;243;161622;-57
2024/01/28 05:16:50;;;;;;;;;4.00;3.00;;;;;2.26;98.09;102269.76;112433;244;40780;-57
2024/01/28 05:19:34;;;;;;;;;4.00;3.00;;;;;2.28;98.24;102272.83;112566;244;39069;-58
2024/01/28 05:22:15;;;;;;;;;5.25;4.75;;;;;2.33;98.23;102275.39;112511;244;40119;-57
2024/01/28 05:24:54;;;;;;;;;5.00;3.00;;;;;2.35;98.39;102275.80;112406;243;162596;-56
2024/01/28 05:27:37;;;;;;;;;4.00;3.00;;;;;2.35;98.36;102276.35;112482;244;40642;-56
2024/01/28 05:30:12;;;;;;;;;6.50;3.00;;;;;2.37;98.51;102281.91;112367;242;161258;-55
2024/01/28 05:32:51;;;;;;;;;3.00;2.00;;;;;2.39;98.48;102279.14;112466;244;39159;-56
2024/01/28 05:35:34;;;;;;;;;4.00;3.00;;;;;2.44;98.55;102281.48;112478;244;40040;-58
2024/01/28 05:38:16;;;;;;;;;3.75;2.50;;;;;2.52;98.58;102285.81;112241;243;161120;-58
2024/01/28 05:40:55;;;;;;;;;8.50;5.00;;;;;2.56;98.61;102285.42;112479;244;39871;-55
2024/01/28 05:43:38;;;;;;;;;5.00;3.00;;;;;2.58;98.63;102285.66;112261;242;161127;-55
2024/01/28 05:46:18;;;;;;;;;3.75;3.00;;;;;2.60;98.62;102292.11;112483;243;39327;-56
2024/01/28 05:49:13;;;;;;;;;4.00;3.00;;;;;2.65;98.47;102291.59;112259;244;160931;-56
2024/01/28 05:51:53;;;;;;;;;5.67;4.00;;;;;2.68;98.62;102290.88;112398;244;40213;-57
2024/01/28 05:54:41;;;;;;;;;5.00;4.00;;;;;2.70;98.54;102296.98;112303;242;161583;-55
2024/01/28 05:57:19;;;;;;;;;4.00;3.00;;;;;2.73;98.58;102304.27;112450;243;39694;-55
2024/01/28 05:59:57;;;;;;;;;4.00;3.00;;;;;2.72;98.69;102304.70;112512;243;39998;-55
2024/01/28 06:02:38;;;;;;;;;5.00;4.00;;;;;2.73;98.76;102308.00;112393;243;40074;-56
2024/01/28 06:05:15;;;;;;;;;4.75;3.25;;;;;2.74;98.82;102307.93;112449;243;40236;-55
2024/01/28 06:07:59;;;;;;;;;4.67;3.00;;;;;2.77;98.83;102314.02;112313;243;161086;-56
2024/01/28 06:10:40;;;;;;;;;6.00;5.00;;;;;2.75;98.91;102316.21;112497;244;39632;-59
2024/01/28 06:13:22;;;;;;;;;6.00;4.00;;;;;2.76;98.97;102313.15;112344;242;161166;-59
2024/01/28 06:16:00;;;;;;;;;5.00;3.00;;;;;2.78;98.84;102319.46;112483;243;39774;-55
2024/01/28 06:18:45;;;;;;;;;5.00;4.00;;;;;2.74;99.08;102321.66;112357;242;161422;-56
2024/01/28 06:21:25;;;;;;;;;4.00;4.00;;;;;2.76;99.09;102330.44;112462;243;40270;-58
2024/01/28 06:24:05;;;;;;;;;3.00;3.00;;;;;2.75;99.27;102331.92;112502;243;39220;-55
2024/01/28 06:26:49;;;;;;;;;10.00;5.33;;;;;2.77;99.15;102333.92;112410;243;39772;-54
2024/01/28 06:29:30;;;;;;;;;6.33;5.00;;;;;2.80;99.27;102326.44;112463;243;39652;-58
2024/01/28 06:32:08;;;;;;;;;8.00;6.00;;;;;2.82;99.29;102325.45;112252;242;160979;-58
2024/01/28 06:34:50;;;;;;;;;5.33;4.00;;;;;2.84;99.40;102328.85;112469;243;39799;-58
2024/01/28 06:37:35;;;;;;;;;6.00;4.00;;;;;2.90;99.39;102334.02;112266;243;161493;-58
2024/01/28 06:40:12;;;;;;;;;8.00;6.00;;;;;2.90;99.32;102338.61;112427;244;39656;-58
2024/01/28 06:42:52;;;;;;;;;5.00;4.50;;;;;2.86;99.48;102339.21;112303;242;161418;-59
2024/01/28 06:45:30;;;;;;;;;6.00;5.00;;;;;2.89;99.53;102337.95;112430;243;41196;-55
2024/01/28 06:48:08;;;;;;;;;5.25;4.00;;;;;2.86;99.73;102340.66;112480;243;39098;-55
2024/01/28 06:50:47;;;;;;;;;6.75;5.00;;;;;2.87;99.84;102342.90;112456;244;41694;-57
2024/01/28 06:53:31;;;;;;;;;7.00;5.00;;;;;2.89;99.78;102345.42;112438;244;39483;-57
2024/01/28 06:56:09;;;;;;;;;7.00;5.00;;;;;2.91;99.87;102350.66;112369;242;161283;-55
2024/01/28 06:58:48;;;;;;;;;6.00;5.00;;;;;2.94;99.83;102348.89;112497;243;39826;-55
2024/01/28 07:01:31;;;;;;;;;4.75;4.00;;;;;2.97;99.89;102343.17;112367;243;161104;-55
2024/01/28 07:04:19;;;;;;;;;6.00;4.00;;;;;3.04;99.85;102350.45;112475;244;39343;-57
2024/01/28 07:07:03;;;;;;;;;6.00;4.25;;;;;3.07;99.84;102354.86;112268;242;161778;-58
2024/01/28 07:09:37;;;;;;;;;7.00;6.00;;;;;3.09;99.98;102357.04;112417;243;39756;-59
2024/01/28 07:12:15;;;;;;;;;10.00;8.00;;;;;3.11;99.90;102356.43;112398;243;40688;-61
2024/01/28 07:15:00;;;;;;;;;16.00;11.00;;;;;3.16;99.79;102360.55;112401;243;40189;-58
2024/01/28 07:17:38;;;;;;;;;15.00;11.00;;;;;3.14;99.96;102368.48;112415;243;39598;-58
2024/01/28 07:20:18;;;;;;;;;19.00;14.00;;;;;3.23;100.00;102363.84;112298;243;177179;-57
2024/01/28 07:23:02;;;;;;;;;17.67;11.00;;;;;3.32;100.00;102362.35;112435;243;40102;-57
2024/01/28 07:25:42;;;;;;;;;13.25;10.50;;;;;3.41;100.00;102369.66;112276;243;161758;-58
2024/01/28 07:28:21;;;;;;;;;17.50;11.00;;;;;3.46;100.00;102369.17;112383;244;39581;-58
2024/01/28 07:31:03;;;;;;;;;10.00;8.00;;;;;3.49;100.00;102373.96;112377;242;161887;-59
2024/01/28 07:33:38;;;;;;;;;15.25;10.00;;;;;3.55;100.00;102366.05;112494;243;40427;-59
2024/01/28 07:36:15;;;;;;;;;8.00;6.00;;;;;3.65;100.00;102368.11;112505;243;40144;-60
2024/01/28 07:38:56;;;;;;;;;10.33;7.33;;;;;3.70;100.00;102367.43;112474;244;39614;-59
2024/01/28 07:41:34;;;;;;;;;9.25;6.00;;;;;3.74;100.00;102364.54;112408;244;39774;-61
2024/01/28 07:44:15;;;;;;;;;13.00;9.50;;;;;3.82;100.00;102367.06;112309;242;162819;-58
2024/01/28 07:46:51;;;;;;;;;13.00;10.00;;;;;4.23;100.00;102366.33;112420;244;40181;-59
2024/01/28 07:49:27;;;;;;;;;12.00;9.00;;;;;4.64;100.00;102368.35;112348;242;162381;-58
2024/01/28 07:52:05;;;;;;;;;10.00;8.00;;;;;5.61;100.00;102366.39;112415;244;40334;-58
2024/01/28 07:54:44;;;;;;;;;20.00;15.00;;;;;6.12;100.00;102366.95;112341;242;161934;-59
2024/01/28 07:57:23;;;;;;;;;17.50;14.00;;;;;6.17;100.00;102367.70;112399;244;41087;-59
2024/01/28 07:59:58;;;;;;;;;15.00;10.00;;;;;6.29;100.00;102370.70;112442;244;41374;-55
2024/01/28 08:02:40;;;;;;;;;12.00;11.00;;;;;6.66;99.98;102372.88;112238;242;161227;-55
2024/01/28 08:05:24;;;;;;;;;16.00;12.00;;;;;7.70;100.00;102371.50;112434;244;41117;-58
2024/01/28 08:08:05;;;;;;;;;10.33;7.00;;;;;8.27;98.31;102370.41;112416;243;37952;-57
2024/01/28 08:10:41;;;;;;;;;13.00;9.00;;;;;7.83;97.29;102369.77;112468;243;40640;-55
2024/01/28 08:13:19;;;;;;;;;8.00;7.00;;;;;7.49;96.73;102375.13;112325;242;161191;-55
2024/01/28 08:16:03;;;;;;;;;7.25;6.00;;;;;7.27;96.82;102378.00;112462;244;41047;-56
2024/01/28 08:18:39;;;;;;;;;10.00;8.00;;;;;7.14;96.54;102376.02;112330;244;161590;-57
2024/01/28 08:21:19;;;;;;;;;10.50;8.00;;;;;6.93;95.91;102377.32;112468;244;40285;-55
2024/01/28 08:23:56;;;;;;;;;9.00;7.00;;;;;6.65;95.96;102378.37;112561;244;39897;-55
2024/01/28 08:26:33;;;;;;;;;5.00;4.00;;;;;6.38;95.76;102383.42;112343;242;160735;-57
2024/01/28 08:29:14;;;;;;;;;10.00;5.00;;;;;6.36;95.86;102392.02;112509;244;39663;-56
2024/01/28 08:31:54;;;;;;;;;6.33;5.00;;;;;6.17;95.37;102394.17;112308;242;160732;-56
2024/01/28 08:34:34;;;;;;;;;6.00;4.00;;;;;6.01;95.19;102396.23;112439;244;39967;-57
2024/01/28 08:37:13;;;;;;;;;6.00;4.00;;;;;5.93;95.41;102398.94;112248;242;161516;-57
2024/01/28 08:39:52;;;;;;;;;7.00;5.75;;;;;5.95;95.87;102403.64;112471;244;39822;-56
2024/01/28 08:42:31;;;;;;;;;7.33;6.33;;;;;6.02;96.00;102404.75;112268;244;161751;-56
2024/01/28 08:45:09;;;;;;;;;9.33;7.33;;;;;6.14;95.62;102403.51;112365;244;39897;-57
2024/01/28 08:47:48;;;;;;;;;12.00;8.00;;;;;6.24;95.99;102402.42;112385;244;39255;-57
2024/01/28 08:50:28;;;;;;;;;3.50;3.00;;;;;6.48;96.39;102403.30;112240;243;161304;-58
2024/01/28 08:53:04;;;;;;;;;5.00;4.00;;;;;7.19;97.43;102404.84;112426;245;41292;-60
2024/01/28 08:55:45;;;;;;;;;4.50;3.25;;;;;7.44;96.45;102403.02;112286;243;161282;-56
2024/01/28 08:58:27;;;;;;;;;7.00;5.00;;;;;7.45;96.12;102409.73;112409;245;39044;-55
2024/01/28 09:01:08;;;;;;;;;3.33;3.00;;;;;7.40;95.63;102412.33;112372;243;161620;-56
2024/01/28 09:03:50;;;;;;;;;4.00;3.00;;;;;7.16;95.27;102414.73;112453;245;40773;-56
2024/01/28 09:06:28;;;;;;;;;2.75;2.00;;;;;6.94;95.26;102412.88;112436;245;39413;-55
2024/01/28 09:09:07;;;;;;;;;5.00;4.00;;;;;6.89;94.61;102420.18;112523;244;39547;-55
2024/01/28 09:11:44;;;;;;;;;6.75;4.25;;;;;6.70;94.62;102426.86;112460;244;41527;-54
2024/01/28 09:14:27;;;;;;;;;6.00;5.00;;;;;6.60;94.58;102431.02;112373;242;160825;-57
2024/01/28 09:17:06;;;;;;;;;4.00;3.00;;;;;6.58;94.61;102436.21;112403;244;39924;-57
2024/01/28 09:19:44;;;;;;;;;4.00;3.00;;;;;6.55;94.65;102432.65;112386;242;160956;-54
2024/01/28 09:22:24;;;;;;;;;7.00;5.00;;;;;6.48;94.78;102429.77;112444;244;40034;-54
2024/01/28 09:25:06;;;;;;;;;3.25;2.50;;;;;6.47;94.86;102424.61;112340;242;161242;-55
2024/01/28 09:27:48;;;;;;;;;4.00;3.00;;;;;6.54;95.10;102425.21;112447;244;40183;-55
2024/01/28 09:30:24;;;;;;;;;4.50;3.00;;;;;6.62;95.16;102422.50;112472;244;39964;-54
2024/01/28 09:33:03;;;;;;;;;6.00;4.00;;;;;6.57;94.99;102425.52;112310;242;161190;-55
2024/01/28 09:35:39;;;;;;;;;6.00;4.00;;;;;6.42;94.98;102424.87;112367;244;40178;-56
2024/01/28 09:38:14;;;;;;;;;7.00;5.00;;;;;6.32;95.15;102424.91;112333;242;160343;-58
2024/01/28 09:40:49;;;;;;;;;6.00;5.00;;;;;6.40;95.06;102428.19;112441;243;39401;-55
2024/01/28 09:43:32;;;;;;;;;4.00;3.00;;;;;6.49;95.11;102435.10;112289;243;160786;-55
2024/01/28 09:46:17;;;;;;;;;5.00;3.00;;;;;6.51;95.07;102427.59;112447;244;40633;-54
2024/01/28 09:48:56;;;;;;;;;4.67;3.00;;;;;6.45;95.14;102428.71;112353;243;161500;-54
2024/01/28 09:51:38;;;;;;;;;3.00;3.00;;;;;6.48;95.42;102426.67;112341;246;40433;-54
2024/01/28 09:54:14;;;;;;;;;6.25;5.00;;;;;6.63;95.07;102429.89;112478;245;39756;-57
2024/01/28 09:56:59;;;;;;;;;5.00;4.00;;;;;6.67;95.00;102428.58;112363;243;161417;-57
2024/01/28 09:59:38;;;;;;;;;5.00;4.00;;;;;6.78;94.30;102435.39;112484;245;40847;-56
2024/01/28 10:02:15;;;;;;;;;5.00;4.00;;;;;6.70;94.20;102435.13;112345;243;161485;-56
2024/01/28 10:04:55;;;;;;;;;4.75;3.75;;;;;6.59;94.22;102438.08;112530;245;39533;-57
2024/01/28 10:07:40;;;;;;;;;5.00;4.00;;;;;6.56;93.98;102442.03;112359;243;160879;-57
2024/01/28 10:10:17;;;;;;;;;3.00;2.00;;;;;6.46;94.19;102446.20;112488;245;40560;-58
2024/01/28 10:12:54;;;;;;;;;5.00;4.00;;;;;6.42;94.31;102442.89;112292;243;161713;-56
2024/01/28 10:15:36;;;;;;;;;6.00;5.00;;;;;6.39;94.15;102439.20;112445;245;38886;-61
2024/01/28 10:18:12;;;;;;;;;6.00;4.00;;;;;6.33;94.22;102441.60;112160;246;42207;-57
2024/01/28 10:20:52;;;;;;;;;8.00;6.00;;;;;6.39;94.06;102440.61;112273;243;161899;-58
2024/01/28 10:23:35;;;;;;;;;3.00;2.50;;;;;6.39;94.23;102440.97;112428;246;40255;-58
2024/01/28 10:26:13;;;;;;;;;2.00;2.00;;;;;6.39;94.16;102438.31;112326;243;161408;-58
2024/01/28 10:28:51;;;;;;;;;5.50;4.00;;;;;6.44;94.12;102440.61;112382;245;40619;-59
2024/01/28 10:31:32;;;;;;;;;7.00;5.50;;;;;6.40;94.02;102438.94;112310;243;160999;-58
2024/01/28 10:34:13;;;;;;;;;5.67;5.00;;;;;6.38;93.80;102441.60;112450;245;39687;-57
2024/01/28 10:36:53;;;;;;;;;3.00;2.00;;;;;6.36;93.77;102443.87;112305;243;161998;-57
2024/01/28 10:39:32;;;;;;;;;5.00;4.00;;;;;6.33;94.05;102444.64;112394;245;40625;-58
2024/01/28 10:42:14;;;;;;;;;7.00;6.00;;;;;6.33;93.83;102448.55;112452;246;39114;-58
2024/01/28 10:44:55;;;;;;;;;4.00;3.00;;;;;6.36;93.93;102447.82;112341;243;161150;-58
2024/01/28 10:47:38;;;;;;;;;4.00;2.00;;;;;6.37;94.06;102450.44;112456;245;39326;-59
2024/01/28 10:50:15;;;;;;;;;3.00;3.00;;;;;6.38;93.98;102449.44;112387;243;161675;-55
2024/01/28 10:52:53;;;;;;;;;6.00;5.00;;;;;6.40;93.80;102452.88;112504;245;39752;-55
2024/01/28 10:55:34;;;;;;;;;5.00;4.00;;;;;6.35;93.85;102453.46;112368;245;160828;-56
2024/01/28 10:58:10;;;;;;;;;5.00;3.00;;;;;6.32;94.09;102459.02;112325;246;40695;-56
2024/01/28 11:00:51;;;;;;;;;9.00;6.00;;;;;6.28;94.12;102458.45;112409;245;39887;-57
2024/01/28 11:03:28;;;;;;;;;5.00;3.25;;;;;6.23;94.21;102458.80;112160;246;40116;-57
2024/01/28 11:06:05;;;;;;;;;13.00;10.00;;;;;6.28;93.82;102458.45;112433;245;40090;-57
2024/01/28 11:08:45;;;;;;;;;6.00;6.00;;;;;6.25;93.82;102456.89;112273;243;161684;-57
2024/01/28 11:11:22;;;;;;;;;5.25;4.00;;;;;6.23;93.78;102460.58;112452;245;40244;-55
2024/01/28 11:14:07;;;;;;;;;5.00;4.00;;;;;6.27;93.67;102463.49;112460;245;40786;-56
2024/01/28 11:16:47;;;;;;;;;6.25;5.00;;;;;6.26;93.72;102465.91;112414;245;40807;-56
2024/01/28 11:19:30;;;;;;;;;9.33;7.00;;;;;6.29;93.82;102463.04;112281;245;161108;-58
2024/01/28 11:22:18;;;;;;;;;5.25;5.00;;;;;6.31;93.69;102463.42;112458;244;39775;-59
2024/01/28 11:24:59;;;;;;;;;4.00;3.00;;;;;6.27;93.51;102465.48;112364;243;160412;-59
2024/01/28 11:27:38;;;;;;;;;4.67;4.00;;;;;6.19;93.60;102467.86;112450;245;39686;-59
2024/01/28 11:30:20;;;;;;;;;8.00;6.00;;;;;6.14;93.72;102470.42;112568;245;39509;-59
2024/01/28 11:33:10;;;;;;;;;4.25;4.00;;;;;6.16;93.71;102470.58;112331;243;161255;-57
2024/01/28 11:35:46;;;;;;;;;4.25;4.00;;;;;6.22;93.86;102470.17;112508;245;40856;-55
2024/01/28 11:38:28;;;;;;;;;8.00;6.00;;;;;6.21;93.85;102473.45;112339;243;160687;-55
2024/01/28 11:41:04;;;;;;;;;4.00;4.00;;;;;6.19;93.76;102468.61;112464;245;39649;-57
2024/01/28 11:43:46;;;;;;;;;4.33;4.00;;;;;6.07;93.79;102473.20;112480;245;40294;-57
2024/01/28 11:46:30;;;;;;;;;4.00;3.00;;;;;6.08;93.91;102475.14;112429;245;40042;-58
2024/01/28 11:49:09;;;;;;;;;4.00;4.00;;;;;6.08;94.01;102476.89;112326;244;163151;-57
2024/01/28 11:51:48;;;;;;;;;3.50;2.75;;;;;6.08;93.96;102472.65;112499;244;40429;-56
2024/01/28 11:54:31;;;;;;;;;6.00;5.00;;;;;6.11;93.90;102471.56;112451;244;40132;-58
2024/01/28 11:57:27;;;;;;;;;8.00;6.00;;;;;6.16;93.91;102471.13;112364;242;160672;-58
2024/01/28 12:00:08;;;;;;;;;11.00;8.00;;;;;6.13;93.89;102473.14;112470;244;39412;-59
2024/01/28 12:02:45;;;;;;;;;7.00;5.00;;;;;6.15;93.93;102470.90;112393;242;161153;-58
2024/01/28 12:05:21;;;;;;;;;5.25;3.25;;;;;6.11;93.85;102473.52;112421;244;40274;-55
2024/01/28 12:08:03;;;;;;;;;6.00;5.00;;;;;6.09;94.02;102477.71;112304;242;160841;-55
2024/01/28 12:10:55;;;;;;;;;7.00;5.00;;;;;6.04;93.95;102477.02;112463;244;39434;-56
2024/01/28 12:13:39;;;;;;;;;7.00;5.00;;;;;6.05;93.87;102475.48;112337;243;161741;-55
2024/01/28 12:16:23;;;;;;;;;5.33;5.00;;;;;6.13;93.76;102486.59;112306;244;40560;-57
2024/01/28 12:18:59;;;;;;;;;6.00;4.00;;;;;6.12;93.78;102486.29;112374;243;160875;-56
2024/01/28 12:21:48;;;;;;;;;7.00;6.00;;;;;6.13;93.57;102490.84;112471;246;39358;-56
2024/01/28 12:24:26;;;;;;;;;8.33;6.00;;;;;6.15;93.68;102492.52;112511;245;40492;-57
2024/01/28 12:27:05;;;;;;;;;7.00;6.00;;;;;6.12;93.72;102493.06;112362;242;160639;-58